Time;durP1;ratioP1;P1;durP2;ratioP2;P2;SDS_P1;SDS_P2;PMS_P1;PMS_P2;Temp;Humidity;BMP_temperature;BMP_pressure;BME280_temperature;BME280_humidity;BME280_pressure;Samples;Min_cycle;Max_cycle;Signal;HPM_P1;HPM_P2
2022/10/03 00:00:12;;;;;;;5.43;1.70;;;11.60;99.90;;;11.63;100.00;101922.59;5265736;28;20083;-73
2022/10/03 00:03:20;;;;;;;4.38;1.90;;;11.60;99.90;;;11.58;100.00;101930.19;5267971;28;20450;-72
2022/10/03 00:06:05;;;;;;;3.85;1.50;;;11.50;99.90;;;11.55;100.00;101932.66;5267753;28;20119;-73
2022/10/03 00:09:26;;;;;;;3.95;1.65;;;11.50;99.90;;;11.50;100.00;101941.97;5266226;28;20075;-73
2022/10/03 00:12:13;;;;;;;3.10;1.50;;;11.50;99.90;;;11.45;100.00;101943.47;5267614;28;20127;-74
2022/10/03 00:14:58;;;;;;;5.28;1.90;;;11.40;99.90;;;11.41;100.00;101954.59;5267577;28;20040;-72
2022/10/03 00:17:44;;;;;;;2.90;1.40;;;11.40;99.90;;;11.35;100.00;101949.97;5266238;28;20500;-74
2022/10/03 00:20:44;;;;;;;3.20;1.63;;;11.30;99.90;;;11.28;100.00;101952.16;5280391;28;20490;-73
2022/10/03 00:23:24;;;;;;;4.82;1.33;;;11.20;99.90;;;11.24;100.00;101947.63;5286723;28;20051;-72
2022/10/03 00:26:25;;;;;;;3.55;1.60;;;11.20;99.90;;;11.19;100.00;101955.22;5288365;28;20044;-74
2022/10/03 00:29:46;;;;;;;3.15;1.60;;;11.20;99.90;;;11.16;100.00;101960.28;5288069;28;20074;-73
2022/10/03 00:32:31;;;;;;;3.60;1.35;;;11.10;99.90;;;11.13;100.00;101966.22;5201757;28;20530;-74
2022/10/03 00:35:21;;;;;;;3.90;1.90;;;11.10;99.90;;;11.07;100.00;101973.75;5287104;28;20085;-73
2022/10/03 00:38:18;;;;;;;4.90;1.75;;;11.00;99.90;;;11.03;100.00;101974.41;5288031;28;20046;-73
2022/10/03 00:41:23;;;;;;;7.25;2.13;;;11.00;99.90;;;10.99;100.00;101976.78;5287578;28;20397;-73
2022/10/03 00:44:49;;;;;;;3.05;1.40;;;11.00;99.90;;;10.97;100.00;101976.72;5284570;28;20059;-72
2022/10/03 00:47:49;;;;;;;4.75;1.58;;;10.90;99.90;;;10.94;100.00;101973.94;5287898;28;20488;-74
2022/10/03 00:50:59;;;;;;;3.33;1.50;;;10.90;99.90;;;10.91;100.00;101979.00;5287446;28;20048;-74
2022/10/03 00:53:47;;;;;;;3.72;1.40;;;10.90;99.90;;;10.88;100.00;101984.03;5287581;28;20044;-73
2022/10/03 00:56:47;;;;;;;4.38;1.63;;;10.80;99.90;;;10.86;100.00;101985.69;5287878;28;20499;-73
2022/10/03 00:59:36;;;;;;;3.65;1.83;;;10.80;99.90;;;10.83;100.00;101985.53;5287063;28;20109;-76
2022/10/03 01:02:36;;;;;;;3.35;1.80;;;10.80;99.90;;;10.83;100.00;101990.75;5287239;28;20062;-73
2022/10/03 01:05:24;;;;;;;2.88;1.40;;;10.80;99.90;;;10.80;100.00;101982.75;5287295;28;20050;-73
2022/10/03 01:08:31;;;;;;;4.28;1.88;;;10.80;99.90;;;10.77;100.00;101982.59;5286169;28;20403;-73
2022/10/03 01:11:16;;;;;;;2.08;1.42;;;10.80;99.90;;;10.74;100.00;101980.72;5287309;28;20079;-73
2022/10/03 01:14:07;;;;;;;3.22;1.70;;;10.70;99.90;;;10.73;100.00;101980.63;5287269;28;20130;-73
2022/10/03 01:16:51;;;;;;;3.47;1.60;;;10.70;99.90;;;10.72;100.00;101981.47;5303267;27;20043;-74
2022/10/03 01:19:59;;;;;;;2.88;1.55;;;10.70;99.90;;;10.67;100.00;101991.63;5286778;28;20070;-73
2022/10/03 01:23:13;;;;;;;5.70;1.73;;;10.70;99.90;;;10.66;100.00;101986.34;5286954;28;20105;-73
2022/10/03 01:25:52;;;;;;;3.67;1.40;;;10.60;99.90;;;10.62;100.00;101979.16;5287402;28;20077;-73
2022/10/03 01:31:41;;;;;;;4.72;1.65;;;10.60;99.90;;;10.56;100.00;101990.16;5286937;28;20051;-73
2022/10/03 01:34:25;;;;;;;6.15;1.80;;;10.50;99.90;;;10.52;100.00;101988.22;5287422;28;20039;-73
2022/10/03 01:37:14;;;;;;;4.85;1.48;;;10.50;99.90;;;10.49;100.00;101981.09;5286785;28;20032;-71
2022/10/03 01:39:53;;;;;;;1.90;1.50;;;10.50;99.90;;;10.47;100.00;101985.34;5286811;28;20048;-72
2022/10/03 01:42:40;;;;;;;5.00;2.17;;;10.50;99.90;;;10.45;100.00;101983.50;5287503;28;20393;-72
2022/10/03 01:45:27;;;;;;;4.25;1.38;;;10.40;99.90;;;10.42;100.00;101984.19;5291083;28;20055;-74
2022/10/03 01:48:06;;;;;;;2.78;1.92;;;10.40;99.90;;;10.40;100.00;101983.22;5291623;28;20446;-73
2022/10/03 01:50:49;;;;;;;4.10;1.42;;;10.40;99.90;;;10.39;100.00;101985.75;5290936;28;20031;-73
2022/10/03 01:53:35;;;;;;;2.08;1.60;;;10.40;99.90;;;10.37;100.00;101983.09;5291176;28;20380;-73
2022/10/03 01:56:19;;;;;;;3.83;1.85;;;10.40;99.90;;;10.34;100.00;101988.09;5289857;28;20047;-73
2022/10/03 01:59:00;;;;;;;4.05;1.52;;;10.40;99.90;;;10.29;100.00;101990.44;5289727;28;20054;-72
2022/10/03 02:01:47;;;;;;;2.92;1.23;;;10.30;99.90;;;10.27;100.00;101996.41;5290882;28;20075;-73
2022/10/03 02:04:36;;;;;;;3.28;1.52;;;10.30;99.90;;;10.25;100.00;101998.94;5290991;28;20067;-72
2022/10/03 02:07:20;;;;;;;4.13;1.45;;;10.30;99.90;;;10.22;100.00;101993.50;5291100;28;20039;-72
2022/10/03 02:10:06;;;;;;;3.10;1.40;;;10.30;99.90;;;10.21;100.00;101998.63;5290554;28;20602;-72
2022/10/03 02:12:45;;;;;;;2.35;1.42;;;10.20;99.90;;;10.21;100.00;101996.03;5290922;28;20474;-73
2022/10/03 02:15:24;;;;;;;2.70;1.20;;;10.20;99.90;;;10.20;100.00;102009.88;5290921;28;20043;-73
2022/10/03 02:18:10;;;;;;;3.70;1.42;;;10.20;99.90;;;10.20;100.00;102009.88;5291914;28;20039;-73
2022/10/03 02:20:48;;;;;;;4.13;1.30;;;10.20;99.90;;;10.21;100.00;102014.28;5290412;28;20079;-74
2022/10/03 02:23:38;;;;;;;3.75;1.42;;;10.20;99.90;;;10.21;100.00;102016.88;5290548;28;20093;-73
2022/10/03 02:26:56;;;;;;;4.53;1.42;;;10.20;99.90;;;10.23;100.00;102010.06;5291117;28;20043;-72
2022/10/03 02:30:01;;;;;;;4.00;1.60;;;10.30;99.90;;;10.25;100.00;102013.69;5254622;28;20056;-75
2022/10/03 02:33:32;;;;;;;4.47;1.60;;;10.30;99.90;;;10.28;100.00;102019.03;5290580;28;20040;-73
2022/10/03 02:36:47;;;;;;;2.88;1.30;;;10.30;99.90;;;10.30;100.00;102012.19;5290357;28;20089;-73
2022/10/03 02:42:35;;;;;;;3.40;1.60;;;10.40;99.90;;;10.38;100.00;102010.03;5259488;28;20126;-72
2022/10/03 02:46:09;;;;;;;4.00;1.25;;;10.40;99.90;;;10.40;100.00;102009.31;5248815;28;20070;-74
2022/10/03 02:49:43;;;;;;;5.22;1.73;;;10.40;99.90;;;10.43;100.00;102008.56;5247009;28;20055;-72
2022/10/03 02:53:12;;;;;;;2.70;1.40;;;10.40;99.90;;;10.44;100.00;102008.66;5248610;28;20076;-72
2022/10/03 02:56:47;;;;;;;2.75;1.40;;;10.50;99.90;;;10.47;100.00;102011.44;5217588;28;20086;-73
2022/10/03 03:00:08;;;;;;;4.50;1.45;;;10.50;99.90;;;10.49;100.00;102008.88;5215582;28;20508;-72
2022/10/03 03:03:09;;;;;;;4.85;1.83;;;10.50;99.90;;;10.52;100.00;102014.28;5214710;28;20056;-72
2022/10/03 03:06:25;;;;;;;2.40;1.20;;;10.50;99.90;;;10.54;100.00;102015.25;5248542;28;20037;-72
2022/10/03 03:09:54;;;;;;;4.90;1.50;;;10.50;99.90;;;10.54;100.00;102021.38;5248177;28;20044;-72
2022/10/03 03:13:10;;;;;;;3.65;1.50;;;10.60;99.90;;;10.54;100.00;102017.88;5248275;28;20055;-73
2022/10/03 03:16:36;;;;;;;4.20;1.63;;;10.50;99.90;;;10.52;100.00;102017.78;5242983;28;20094;-73
2022/10/03 03:19:39;;;;;;;2.85;1.55;;;10.50;99.90;;;10.48;100.00;102030.56;5246766;28;20226;-72
2022/10/03 03:22:33;;;;;;;3.40;1.80;;;10.50;99.90;;;10.43;100.00;102035.56;5248074;28;20040;-72
2022/10/03 03:25:14;;;;;;;;;;;10.50;99.90;;;10.37;100.00;102037.81;5248347;28;20056;-72
2022/10/03 03:27:52;;;;;;;;;;;10.40;99.90;;;10.32;100.00;102031.44;5248387;28;19978;-72
2022/10/03 03:30:37;;;;;;;2.17;1.02;;;10.40;99.90;;;10.27;100.00;102031.19;5247713;28;19920;-73
2022/10/03 03:33:16;;;;;;;2.20;1.30;;;10.30;99.90;;;10.25;100.00;102039.75;5247913;28;20045;-71
2022/10/03 03:36:02;;;;;;;2.95;1.30;;;10.30;99.90;;;10.21;100.00;102035.13;5247684;28;20052;-72
2022/10/03 03:38:49;;;;;;;1.52;1.00;;;10.20;99.90;;;10.16;100.00;102050.50;5247577;28;20040;-71
2022/10/03 03:41:48;;;;;;;3.60;1.20;;;10.20;99.90;;;10.12;100.00;102047.66;5247411;28;20041;-73
2022/10/03 03:44:57;;;;;;;2.58;1.30;;;10.20;99.90;;;10.09;100.00;102048.34;5247614;28;20045;-71
2022/10/03 03:47:58;;;;;;;3.25;1.45;;;10.10;99.90;;;10.05;100.00;102052.50;5228995;28;20136;-72
2022/10/03 03:50:36;;;;;;;;;;;10.10;99.90;;;10.03;100.00;102051.50;5247979;28;20404;-72
2022/10/03 03:53:40;;;;;;;3.40;1.30;;;10.10;99.90;;;10.04;100.00;102048.13;5245943;28;19921;-73
2022/10/03 03:56:45;;;;;;;3.65;1.48;;;10.10;99.90;;;10.06;100.00;102046.47;5247733;28;20059;-72
2022/10/03 03:59:39;;;;;;;2.70;1.45;;;10.10;99.90;;;10.11;100.00;102045.84;5247102;28;20129;-71
2022/10/03 04:02:27;;;;;;;2.95;1.30;;;10.10;99.90;;;10.14;100.00;102056.44;5247035;28;20067;-72
2022/10/03 04:05:17;;;;;;;3.75;1.60;;;10.20;99.90;;;10.17;100.00;102046.19;5246806;28;20398;-73
2022/10/03 04:08:13;;;;;;;3.75;1.45;;;10.20;99.90;;;10.21;100.00;102050.75;5247178;28;20101;-71
2022/10/03 04:11:04;;;;;;;3.35;1.23;;;10.20;99.90;;;10.24;100.00;102045.78;5245586;28;20045;-73
2022/10/03 04:14:05;;;;;;;2.38;1.23;;;10.30;99.90;;;10.25;100.00;102040.63;5247039;28;20048;-73
2022/10/03 04:20:14;;;;;;;2.78;1.40;;;10.30;99.90;;;10.37;100.00;102058.69;5246807;28;20117;-72
2022/10/03 04:23:08;;;;;;;3.38;1.30;;;10.40;99.90;;;10.39;100.00;102063.97;5246836;28;20045;-72
2022/10/03 04:25:54;;;;;;;;;;;10.40;99.90;;;10.35;100.00;102068.09;5247118;28;20059;-72
2022/10/03 04:28:59;;;;;;;2.35;1.33;;;10.40;99.90;;;10.32;100.00;102067.94;5246547;28;20015;-73
2022/10/03 04:31:45;;;;;;;2.78;1.30;;;10.40;99.90;;;10.30;100.00;102066.94;5246653;28;20117;-73
2022/10/03 04:34:34;;;;;;;3.67;1.80;;;10.30;99.90;;;10.30;100.00;102062.66;5245308;28;20037;-72
2022/10/03 04:37:23;;;;;;;4.07;1.40;;;10.30;99.90;;;10.31;100.00;102061.84;5245094;28;20056;-72
2022/10/03 04:40:21;;;;;;;3.38;1.52;;;10.40;99.90;;;10.33;100.00;102057.59;5246371;28;20114;-71
2022/10/03 04:43:08;;;;;;;3.67;1.73;;;10.40;99.90;;;10.37;100.00;102056.06;5245055;28;20443;-71
2022/10/03 04:46:10;;;;;;;2.65;1.48;;;10.40;99.90;;;10.39;100.00;102064.84;5246304;28;20046;-72
2022/10/03 04:48:51;;;;;;;4.00;1.45;;;10.40;99.90;;;10.37;100.00;102066.50;5245096;28;20519;-75
2022/10/03 04:51:35;;;;;;;4.85;1.70;;;10.40;99.90;;;10.36;100.00;102067.28;5244828;28;20056;-71
2022/10/03 04:54:21;;;;;;;5.40;2.10;;;10.40;99.90;;;10.38;100.00;102062.19;5245028;28;20415;-72
2022/10/03 04:57:02;;;;;;;3.35;1.27;;;10.40;99.90;;;10.39;100.00;102067.47;5246344;28;20044;-71
2022/10/03 04:59:47;;;;;;;3.00;1.63;;;10.40;99.90;;;10.40;100.00;102066.66;5245028;28;20044;-73
2022/10/03 05:02:44;;;;;;;2.90;1.40;;;10.40;99.90;;;10.39;100.00;102062.25;5246350;28;20119;-72
2022/10/03 05:05:43;;;;;;;3.03;1.40;;;10.40;99.90;;;10.39;100.00;102062.25;5261773;28;20040;-74
2022/10/03 05:08:38;;;;;;;2.80;1.65;;;10.40;99.90;;;10.36;100.00;102054.25;5246198;28;20549;-75
2022/10/03 05:11:22;;;;;;;2.92;1.45;;;10.40;99.90;;;10.34;100.00;102055.88;5246054;28;20036;-72
2022/10/03 05:14:04;;;;;;;3.28;1.55;;;10.40;99.90;;;10.30;100.00;102065.25;5245965;28;20048;-72
2022/10/03 05:16:42;;;;;;;3.53;1.45;;;10.30;99.90;;;10.30;100.00;102064.31;5243909;28;20110;-73
2022/10/03 05:19:52;;;;;;;2.65;1.38;;;10.30;99.90;;;10.27;100.00;102061.56;5245816;28;20041;-73
2022/10/03 05:22:41;;;;;;;2.65;1.27;;;10.30;99.90;;;10.23;100.00;102063.09;5245901;28;20053;-71
2022/10/03 05:25:29;;;;;;;4.05;1.20;;;10.30;99.90;;;10.19;100.00;102068.03;5245873;28;20040;-74
2022/10/03 05:28:15;;;;;;;1.83;1.17;;;10.20;99.90;;;10.14;100.00;102069.47;5246034;28;20075;-72
2022/10/03 05:30:54;;;;;;;2.30;1.45;;;10.20;99.90;;;10.12;100.00;102081.53;5244231;28;20059;-73
2022/10/03 05:33:39;;;;;;;2.28;1.30;;;10.10;99.90;;;10.11;100.00;102082.34;5244649;28;20063;-73
2022/10/03 05:36:27;;;;;;;3.83;1.55;;;10.10;99.90;;;10.06;100.00;102084.69;5243499;28;20055;-71
2022/10/03 05:39:35;;;;;;;2.38;1.13;;;10.10;99.90;;;10.02;100.00;102088.78;5244909;28;20044;-72
2022/10/03 05:42:36;;;;;;;2.33;1.30;;;10.10;99.90;;;9.96;100.00;102088.44;5245206;28;20667;-73
2022/10/03 05:45:28;;;;;;;2.25;1.10;;;10.00;99.90;;;9.94;100.00;102100.50;5243725;28;20156;-71
2022/10/03 05:48:32;;;;;;;1.83;1.42;;;10.00;99.90;;;9.92;100.00;102101.22;5243918;28;20124;-72
2022/10/03 05:51:38;;;;;;;4.45;1.50;;;9.90;99.90;;;9.90;100.00;102110.63;5244206;28;20091;-71
2022/10/03 05:54:46;;;;;;;2.38;1.50;;;9.90;99.90;;;9.90;100.00;102108.91;5243638;28;20045;-71
2022/10/03 05:58:09;;;;;;;2.00;1.33;;;9.90;99.90;;;9.89;100.00;102111.44;5189771;28;20052;-70
2022/10/03 06:01:10;;;;;;;2.40;1.30;;;9.90;99.90;;;9.88;100.00;102113.16;5244762;28;20047;-59
2022/10/03 06:04:02;;;;;;;3.60;1.40;;;9.90;99.90;;;9.89;100.00;102112.34;5244957;28;20097;-58
2022/10/03 06:06:52;;;;;;;3.28;1.50;;;9.90;99.90;;;9.90;100.00;102119.34;5244927;28;20045;-58
2022/10/03 06:10:17;;;;;;;1.90;1.33;;;9.90;99.90;;;9.89;100.00;102109.75;5244681;28;20485;-59
2022/10/03 06:13:02;;;;;;;4.32;1.90;;;9.90;99.90;;;9.90;100.00;102108.91;5244807;28;20132;-58
2022/10/03 06:16:02;;;;;;;3.80;2.00;;;9.90;99.90;;;9.92;100.00;102109.94;5244726;28;20036;-59
2022/10/03 06:19:05;;;;;;;3.28;1.75;;;9.90;99.90;;;9.97;100.00;102121.50;5241460;28;20049;-59
2022/10/03 06:22:22;;;;;;;3.85;2.00;;;10.00;99.90;;;10.00;100.00;102119.09;5244738;28;20075;-59
2022/10/03 06:25:54;;;;;;;4.38;1.90;;;10.00;99.90;;;10.01;100.00;102118.25;5244714;28;20492;-58
2022/10/03 06:29:04;;;;;;;3.30;1.65;;;10.10;99.90;;;10.06;100.00;102126.34;5218196;28;20057;-58
2022/10/03 06:32:22;;;;;;;3.15;1.65;;;10.10;99.90;;;10.09;100.00;102120.41;5226496;28;20070;-59
2022/10/03 06:35:38;;;;;;;5.40;1.95;;;10.10;99.90;;;10.14;100.00;102118.97;5248281;28;20084;-58
2022/10/03 06:39:14;;;;;;;3.95;1.70;;;10.20;99.90;;;10.16;100.00;102117.34;5219340;28;20059;-58
2022/10/03 06:42:58;;;;;;;4.30;2.20;;;10.20;99.90;;;10.18;100.00;102131.38;5247968;28;20044;-58
2022/10/03 06:46:08;;;;;;;4.28;2.10;;;10.20;99.90;;;10.19;100.00;102133.19;5247964;28;20040;-58
2022/10/03 06:49:36;;;;;;;3.83;1.80;;;10.20;99.90;;;10.22;100.00;102134.22;5247873;28;20036;-59
2022/10/03 06:52:31;;;;;;;3.78;1.95;;;10.30;99.90;;;10.89;100.00;102134.56;5247773;28;20044;-59
2022/10/03 06:56:04;;;;;;;4.40;2.40;;;10.60;99.90;;;12.66;100.00;102137.56;5246878;28;20041;-58
2022/10/03 06:59:10;;;;;;;4.47;2.45;;;11.70;99.90;;;14.35;100.00;102141.59;5247654;28;20044;-59
2022/10/03 07:02:15;;;;;;;4.53;2.53;;;13.10;99.90;;;15.81;100.00;102141.03;5248152;28;20396;-59
2022/10/03 07:05:34;;;;;;;6.95;2.15;;;14.40;99.90;;;17.11;96.83;102145.25;5247691;28;20157;-59
2022/10/03 07:09:23;;;;;;;3.90;1.85;;;15.60;99.90;;;18.01;89.17;102138.97;5247564;28;20052;-61
2022/10/03 07:12:53;;;;;;;4.25;1.90;;;16.70;99.90;;;17.40;89.18;102145.19;5247881;28;20044;-61
2022/10/03 07:16:09;;;;;;;4.10;1.77;;;16.70;99.90;;;16.81;92.24;102145.19;5230175;28;20062;-59
2022/10/03 07:19:11;;;;;;;4.57;2.67;;;16.30;99.90;;;16.50;93.49;102148.63;5230850;28;20049;-59
2022/10/03 07:22:26;;;;;;;8.23;3.10;;;16.00;99.90;;;15.96;96.04;102143.28;5247278;28;20131;-58
2022/10/03 07:25:33;;;;;;;9.02;2.60;;;15.60;99.90;;;15.68;98.82;102146.72;5247230;28;20059;-60
2022/10/03 07:28:41;;;;;;;5.05;2.33;;;15.30;99.90;;;16.04;100.00;102151.44;5247499;28;20056;-61
2022/10/03 07:31:28;;;;;;;7.60;2.38;;;15.40;99.90;;;16.75;98.71;102150.28;5237777;28;20143;-59
2022/10/03 07:34:40;;;;;;;7.18;3.63;;;15.80;99.90;;;17.84;95.33;102154.34;5247225;28;20409;-61
2022/10/03 07:40:57;;;;;;;9.63;5.38;;;17.40;99.90;;;19.39;87.27;102169.47;5246405;28;20093;-58
2022/10/03 07:44:10;;;;;;;6.80;3.13;;;18.00;99.90;;;20.04;85.50;102167.22;5246996;28;20054;-59
2022/10/03 07:47:45;;;;;;;5.75;2.53;;;18.50;99.40;;;20.84;82.25;102180.88;5247035;28;20044;-57
2022/10/03 07:50:51;;;;;;;5.38;2.15;;;19.10;98.40;;;21.55;79.39;102189.81;5246539;28;20059;-57
2022/10/03 07:54:20;;;;;;;5.38;2.20;;;19.60;97.20;;;22.15;76.65;102183.38;5246856;28;20067;-60
2022/10/03 07:57:47;;;;;;;7.40;2.33;;;20.10;96.10;;;22.83;74.51;102183.03;5244294;28;20059;-60
2022/10/03 08:00:23;;;;;;;5.65;2.50;;;20.60;95.00;;;23.31;73.10;102189.50;5246544;28;20125;-58
2022/10/03 08:03:51;;;;;;;5.85;2.83;;;21.10;94.00;;;23.84;71.20;102188.81;5246654;28;20044;-59
2022/10/03 08:06:36;;;;;;;6.65;2.38;;;21.50;92.70;;;24.19;70.14;102195.94;5246477;28;20075;-59
2022/10/03 08:09:47;;;;;;;6.35;2.58;;;21.90;91.50;;;24.47;68.81;102194.22;5246554;28;20047;-59
2022/10/03 08:12:56;;;;;;;6.43;2.67;;;22.20;90.50;;;24.58;68.58;102196.00;5246356;28;20127;-59
2022/10/03 08:15:44;;;;;;;7.72;2.33;;;22.50;89.30;;;24.44;69.10;102195.09;5246430;28;20411;-58
2022/10/03 08:19:14;;;;;;;6.28;2.50;;;22.40;88.50;;;24.42;69.54;102196.88;5246168;28;20090;-59
2022/10/03 08:22:03;;;;;;;8.90;2.70;;;22.40;88.90;;;24.63;69.28;102195.97;5246105;28;20527;-59
2022/10/03 08:25:11;;;;;;;7.18;2.70;;;22.50;87.80;;;24.70;69.24;102195.06;5246123;28;20132;-59
2022/10/03 08:28:05;;;;;;;8.55;2.75;;;22.60;87.30;;;24.63;68.36;102198.63;5246158;28;20078;-61
2022/10/03 08:31:01;;;;;;;6.57;2.40;;;22.70;85.60;;;24.39;69.67;102199.56;5245757;28;20044;-58
2022/10/03 08:34:02;;;;;;;7.60;2.70;;;22.60;85.90;;;23.81;71.29;102204.78;5246192;28;20062;-59
2022/10/03 08:37:06;;;;;;;6.18;2.78;;;22.30;86.20;;;22.85;73.14;102210.50;5245944;28;20564;-58
2022/10/03 08:43:09;;;;;;;10.15;2.80;;;21.20;89.70;;;21.46;79.29;102213.59;5371030;22;20039;-57
2022/10/03 08:46:34;;;;;;;5.47;2.30;;;20.70;90.80;;;20.96;81.91;102200.50;5300723;27;20047;-58
2022/10/03 08:49:31;;;;;;;7.10;2.58;;;20.10;92.20;;;20.71;84.12;102200.13;5297440;27;20043;-60
2022/10/03 08:52:23;;;;;;;7.15;2.60;;;19.90;93.40;;;20.42;84.99;102198.75;5286573;28;20036;-58
2022/10/03 08:55:31;;;;;;;9.60;2.72;;;19.70;94.00;;;20.01;86.11;102198.91;5288035;28;20043;-56
2022/10/03 08:58:57;;;;;;;8.05;2.63;;;19.40;94.40;;;19.76;88.76;102203.75;5295365;27;20552;-56
2022/10/03 09:01:49;;;;;;;9.32;2.63;;;19.20;95.50;;;19.74;90.05;102200.19;5261086;28;20057;-58
2022/10/03 09:04:54;;;;;;;7.45;2.53;;;19.00;96.50;;;19.58;89.98;102203.41;5287992;28;20514;-58
2022/10/03 09:08:09;;;;;;;8.75;2.85;;;19.00;96.60;;;19.36;91.04;102206.41;5288062;28;20491;-58
2022/10/03 09:11:44;;;;;;;9.40;2.72;;;18.80;97.00;;;19.09;92.41;102207.59;5256594;28;20097;-59
2022/10/03 09:14:55;;;;;;;8.00;2.63;;;18.60;97.60;;;18.63;93.92;102217.06;5297796;27;20541;-60
2022/10/03 09:18:10;;;;;;;9.57;2.75;;;18.30;98.10;;;18.22;95.68;102212.50;5225236;27;20063;-63
2022/10/03 09:21:43;;;;;;;5.65;2.63;;;17.90;98.80;;;17.97;97.30;102206.59;5308735;27;20046;-61
2022/10/03 09:25:06;;;;;;;9.85;3.25;;;17.60;99.60;;;17.85;98.38;102200.97;5306687;27;20089;-60
2022/10/03 09:28:26;;;;;;;8.23;2.75;;;17.50;99.90;;;17.77;98.54;102202.50;5295457;27;20137;-61
2022/10/03 09:31:16;;;;;;;7.70;3.03;;;17.40;99.90;;;17.60;99.87;102205.56;5308545;28;20130;-64
2022/10/03 09:34:12;;;;;;;9.48;2.80;;;17.20;99.90;;;17.61;100.00;102204.69;5308879;28;20043;-62
2022/10/03 09:37:38;;;;;;;6.05;2.45;;;17.20;99.90;;;17.69;100.00;102204.03;5308885;28;20050;-57
2022/10/03 09:41:24;;;;;;;8.88;2.53;;;17.30;99.90;;;17.79;99.81;102196.41;5308072;28;20128;-61
2022/10/03 09:44:41;;;;;;;5.63;2.55;;;17.30;99.90;;;17.83;100.00;102193.03;5245121;28;20043;-61
2022/10/03 09:48:02;;;;;;;6.90;2.28;;;17.40;99.90;;;17.95;100.00;102194.22;5287553;28;20048;-61
2022/10/03 09:51:18;;;;;;;6.50;2.15;;;17.40;99.90;;;18.06;99.88;102187.44;5256595;28;20052;-58
2022/10/03 09:54:43;;;;;;;9.18;2.78;;;17.50;99.90;;;18.22;99.04;102180.84;5280748;28;20062;-57
2022/10/03 09:57:41;;;;;;;7.15;2.40;;;17.60;99.90;;;18.58;98.94;102181.75;5287663;28;20088;-58
2022/10/03 10:00:21;;;;;;;6.97;2.55;;;17.90;99.90;;;18.89;97.05;102172.81;5298935;28;20040;-61
2022/10/03 10:03:56;;;;;;;8.43;2.55;;;18.20;99.90;;;19.12;95.26;102177.72;5288523;28;20078;-61
2022/10/03 10:06:46;;;;;;;9.65;2.67;;;18.40;99.90;;;19.32;93.58;102178.13;5273217;28;20504;-58
2022/10/03 10:09:52;;;;;;;6.43;2.30;;;18.70;99.30;;;19.52;93.92;102166.22;5291211;28;20044;-57
2022/10/03 10:13:14;;;;;;;6.70;1.98;;;18.90;99.30;;;19.69;92.77;102175.41;5291430;28;20134;-59
2022/10/03 10:16:32;;;;;;;6.05;2.38;;;19.00;98.80;;;19.78;92.06;102172.94;5214942;28;20101;-58
2022/10/03 10:19:30;;;;;;;6.68;1.75;;;19.20;98.50;;;19.97;91.83;102163.56;5290902;28;20051;-60
2022/10/03 10:22:45;;;;;;;6.60;1.90;;;19.40;98.40;;;20.16;91.60;102162.13;5290941;28;20044;-62
2022/10/03 10:25:37;;;;;;;5.40;1.67;;;19.50;98.30;;;20.47;90.36;102170.59;5291111;28;20449;-58
2022/10/03 10:28:52;;;;;;;7.47;2.08;;;19.70;97.80;;;20.70;88.48;102165.66;5290886;28;20066;-62
2022/10/03 10:32:37;;;;;;;8.57;1.70;;;20.00;97.10;;;21.08;87.00;102174.16;5290735;28;20051;-60
2022/10/03 10:35:46;;;;;;;8.02;1.75;;;20.30;96.50;;;21.31;85.02;102171.81;5290833;28;20051;-56
2022/10/03 10:38:59;;;;;;;5.60;1.40;;;20.60;95.40;;;21.22;84.17;102172.56;5290891;28;20043;-59
2022/10/03 10:42:39;;;;;;;6.10;1.60;;;20.70;94.70;;;21.18;83.39;102165.44;5290660;28;20079;-58
2022/10/03 10:45:39;;;;;;;5.82;1.70;;;20.70;94.40;;;21.18;81.98;102159.25;5290661;28;20572;-58
2022/10/03 10:49:12;;;;;;;6.75;1.85;;;20.70;93.70;;;21.33;83.17;102163.03;5277680;28;20075;-58
2022/10/03 10:52:24;;;;;;;5.43;1.60;;;20.70;93.80;;;21.47;83.02;102159.66;5224111;28;20131;-58
2022/10/03 10:55:45;;;;;;;5.30;1.58;;;20.90;93.80;;;21.58;83.58;102156.25;5290432;28;20047;-58
2022/10/03 10:59:30;;;;;;;5.07;1.50;;;21.00;93.90;;;21.75;82.50;102153.75;5290635;28;20035;-57
2022/10/03 11:03:19;;;;;;;4.63;1.40;;;21.10;93.40;;;21.78;81.99;102148.50;5290309;28;20071;-62
2022/10/03 11:06:42;;;;;;;4.50;1.20;;;21.20;93.10;;;21.59;80.49;102149.19;5271750;28;20054;-58
2022/10/03 11:09:45;;;;;;;5.90;1.30;;;21.10;92.30;;;21.24;80.24;102152.25;5289931;28;20036;-62
2022/10/03 11:13:08;;;;;;;2.60;0.93;;;20.80;92.00;;;21.10;80.19;102151.19;5289976;28;20050;-59
2022/10/03 11:16:38;;;;;;;4.82;1.60;;;20.60;91.90;;;21.15;81.06;102149.50;5283853;28;20120;-59
2022/10/03 11:20:09;;;;;;;3.85;1.08;;;20.60;92.20;;;21.20;80.86;102146.91;5258702;28;20058;-61
2022/10/03 11:23:38;;;;;;;5.32;1.20;;;20.60;92.30;;;21.31;80.74;102146.19;5277490;28;20082;-60
2022/10/03 11:27:05;;;;;;;2.95;1.08;;;20.60;92.20;;;21.38;79.33;102134.78;5289874;28;20043;-57
2022/10/03 11:30:19;;;;;;;3.90;1.30;;;20.70;91.60;;;21.23;78.27;102126.63;5289404;28;20096;-59
2022/10/03 11:33:53;;;;;;;4.40;1.13;;;20.60;90.90;;;20.90;79.38;102136.78;5289156;28;20055;-62
2022/10/03 11:36:54;;;;;;;1.40;0.82;;;20.40;91.30;;;20.58;80.96;102134.56;5228069;28;20066;-58
2022/10/03 11:39:41;;;;;;;5.00;1.02;;;20.10;91.60;;;20.30;82.02;102139.41;5288598;28;20046;-57
2022/10/03 11:42:28;;;;;;;4.20;1.20;;;19.90;92.20;;;19.97;83.62;102133.56;5289320;28;20059;-61
2022/10/03 11:45:03;;;;;;;4.20;1.25;;;19.60;92.70;;;19.71;84.83;102122.53;5289590;28;20052;-58
2022/10/03 11:48:08;;;;;;;3.72;1.15;;;19.30;93.30;;;19.44;85.71;102120.22;5289307;28;20076;-59
2022/10/03 11:50:48;;;;;;;3.25;1.27;;;19.10;93.70;;;19.33;86.42;102125.28;5289139;28;20462;-57
2022/10/03 11:53:50;;;;;;;2.58;1.00;;;19.00;94.10;;;19.27;86.75;102129.56;5289325;28;20081;-59
2022/10/03 11:56:37;;;;;;;3.90;1.50;;;18.90;94.30;;;19.29;88.08;102130.47;5289127;28;20358;-59
2022/10/03 11:59:36;;;;;;;6.53;1.45;;;18.80;94.90;;;19.27;88.51;102117.22;5288821;28;20119;-57
2022/10/03 12:02:16;;;;;;;5.70;0.93;;;18.80;95.20;;;19.27;88.43;102117.22;5288909;28;20052;-58
2022/10/03 12:04:58;;;;;;;4.85;1.30;;;18.80;95.30;;;19.37;88.11;102118.31;5289048;28;20070;-56
2022/10/03 12:10:43;;;;;;;4.60;1.40;;;19.10;95.00;;;19.87;84.75;102111.31;5288464;28;20454;-59
2022/10/03 12:13:19;;;;;;;4.32;1.33;;;19.20;94.30;;;20.08;83.78;102110.78;5288964;28;20411;-59
2022/10/03 12:15:55;;;;;;;3.13;1.15;;;19.50;94.00;;;20.14;82.85;102105.59;5288795;28;20050;-59
2022/10/03 12:18:50;;;;;;;5.93;0.80;;;19.50;93.40;;;20.11;82.92;102105.56;5288570;28;20070;-58
2022/10/03 12:21:42;;;;;;;3.20;0.80;;;19.60;93.30;;;20.14;83.98;102110.00;5288805;28;20050;-56
2022/10/03 12:24:25;;;;;;;5.13;1.20;;;19.60;93.60;;;20.19;84.93;102121.56;5288748;28;20036;-57
2022/10/03 12:27:12;;;;;;;4.93;1.48;;;19.60;93.90;;;20.23;83.31;102111.06;5288817;28;20051;-61
2022/10/03 12:29:54;;;;;;;3.72;1.13;;;19.70;93.80;;;20.09;82.67;102107.31;5269903;28;20055;-57
2022/10/03 12:32:37;;;;;;;6.70;1.50;;;19.60;93.00;;;19.81;82.22;102105.94;5288525;28;20122;-58
2022/10/03 12:35:30;;;;;;;5.38;1.30;;;19.40;92.60;;;19.55;81.92;102100.13;5288543;28;20043;-57
2022/10/03 12:38:25;;;;;;;5.93;1.30;;;19.30;92.40;;;19.41;82.42;102099.88;5288252;28;20051;-58
2022/10/03 12:41:16;;;;;;;3.88;1.20;;;19.10;92.60;;;19.31;83.03;102097.94;5288101;28;20071;-56
2022/10/03 12:44:08;;;;;;;4.07;1.00;;;19.00;92.80;;;19.43;84.13;102094.59;5288155;28;20049;-57
2022/10/03 12:46:51;;;;;;;2.80;0.85;;;19.00;93.30;;;19.67;84.97;102092.47;5288271;28;20044;-57
2022/10/03 12:49:44;;;;;;;6.57;1.10;;;19.10;93.90;;;19.74;82.59;102101.41;5287984;28;20050;-59
2022/10/03 12:52:26;;;;;;;2.47;1.40;;;19.20;93.10;;;19.78;83.23;102098.84;5288180;28;20047;-57